sensor_id;sensor_type;location;lat;lon;timestamp;P1;durP1;ratioP1;P2;durP2;ratioP2
3953;SDS011;1991;48.682;9.030;2023-01-28T00:00:31;8.80;;;6.67;;
3953;SDS011;1991;48.682;9.030;2023-01-28T00:02:57;9.23;;;6.47;;
3953;SDS011;1991;48.682;9.030;2023-01-28T00:05:22;9.20;;;6.60;;
3953;SDS011;1991;48.682;9.030;2023-01-28T00:07:48;8.63;;;6.27;;
3953;SDS011;1991;48.682;9.030;2023-01-28T00:10:15;8.60;;;6.47;;
3953;SDS011;1991;48.682;9.030;2023-01-28T00:12:41;8.57;;;6.13;;
3953;SDS011;1991;48.682;9.030;2023-01-28T00:15:07;8.23;;;6.20;;
3953;SDS011;1991;48.682;9.030;2023-01-28T00:17:34;9.93;;;6.30;;
3953;SDS011;1991;48.682;9.030;2023-01-28T00:20:03;10.57;;;6.03;;
3953;SDS011;1991;48.682;9.030;2023-01-28T00:22:30;8.37;;;6.07;;
3953;SDS011;1991;48.682;9.030;2023-01-28T00:24:56;8.43;;;6.33;;
3953;SDS011;1991;48.682;9.030;2023-01-28T00:27:21;8.30;;;6.10;;
3953;SDS011;1991;48.682;9.030;2023-01-28T00:29:47;7.73;;;5.47;;
3953;SDS011;1991;48.682;9.030;2023-01-28T00:32:13;9.00;;;6.13;;
3953;SDS011;1991;48.682;9.030;2023-01-28T00:34:38;7.30;;;5.83;;
3953;SDS011;1991;48.682;9.030;2023-01-28T00:37:04;9.33;;;6.27;;
3953;SDS011;1991;48.682;9.030;2023-01-28T00:39:30;8.27;;;6.07;;
3953;SDS011;1991;48.682;9.030;2023-01-28T00:41:56;9.47;;;6.83;;
3953;SDS011;1991;48.682;9.030;2023-01-28T00:44:21;10.00;;;6.30;;
3953;SDS011;1991;48.682;9.030;2023-01-28T00:46:47;8.93;;;6.07;;
3953;SDS011;1991;48.682;9.030;2023-01-28T00:49:12;9.67;;;6.60;;
3953;SDS011;1991;48.682;9.030;2023-01-28T00:51:38;8.80;;;6.37;;
3953;SDS011;1991;48.682;9.030;2023-01-28T00:54:04;7.73;;;5.53;;
3953;SDS011;1991;48.682;9.030;2023-01-28T00:56:29;7.87;;;6.10;;
3953;SDS011;1991;48.682;9.030;2023-01-28T00:58:55;8.23;;;5.87;;
3953;SDS011;1991;48.682;9.030;2023-01-28T01:01:25;8.73;;;6.50;;
3953;SDS011;1991;48.682;9.030;2023-01-28T01:03:52;6.40;;;5.27;;
3953;SDS011;1991;48.682;9.030;2023-01-28T01:06:35;7.83;;;5.90;;
3953;SDS011;1991;48.682;9.030;2023-01-28T01:09:03;7.90;;;5.90;;
3953;SDS011;1991;48.682;9.030;2023-01-28T01:11:31;8.40;;;6.10;;
3953;SDS011;1991;48.682;9.030;2023-01-28T01:13:57;8.97;;;6.27;;
3953;SDS011;1991;48.682;9.030;2023-01-28T01:16:25;7.40;;;5.60;;
3953;SDS011;1991;48.682;9.030;2023-01-28T01:18:53;6.93;;;5.23;;
3953;SDS011;1991;48.682;9.030;2023-01-28T01:21:21;8.47;;;6.03;;
3953;SDS011;1991;48.682;9.030;2023-01-28T01:23:48;8.43;;;6.33;;
3953;SDS011;1991;48.682;9.030;2023-01-28T01:26:14;7.37;;;5.40;;
3953;SDS011;1991;48.682;9.030;2023-01-28T01:28:40;8.90;;;6.43;;
3953;SDS011;1991;48.682;9.030;2023-01-28T01:31:07;7.53;;;5.60;;
3953;SDS011;1991;48.682;9.030;2023-01-28T01:33:38;9.13;;;5.83;;
3953;SDS011;1991;48.682;9.030;2023-01-28T01:36:05;8.63;;;5.37;;
3953;SDS011;1991;48.682;9.030;2023-01-28T01:38:31;7.77;;;6.03;;
3953;SDS011;1991;48.682;9.030;2023-01-28T01:40:57;7.17;;;5.70;;
3953;SDS011;1991;48.682;9.030;2023-01-28T01:43:24;7.80;;;5.70;;
3953;SDS011;1991;48.682;9.030;2023-01-28T01:46:09;9.03;;;6.53;;
3953;SDS011;1991;48.682;9.030;2023-01-28T01:48:36;9.10;;;5.67;;
3953;SDS011;1991;48.682;9.030;2023-01-28T01:51:08;7.90;;;5.97;;
3953;SDS011;1991;48.682;9.030;2023-01-28T01:53:38;7.93;;;6.13;;
3953;SDS011;1991;48.682;9.030;2023-01-28T01:56:07;8.10;;;6.07;;
3953;SDS011;1991;48.682;9.030;2023-01-28T01:58:39;8.37;;;5.70;;
3953;SDS011;1991;48.682;9.030;2023-01-28T02:01:08;8.33;;;6.13;;
3953;SDS011;1991;48.682;9.030;2023-01-28T02:04:07;9.10;;;6.23;;
3953;SDS011;1991;48.682;9.030;2023-01-28T02:06:31;8.27;;;5.83;;
3953;SDS011;1991;48.682;9.030;2023-01-28T02:08:58;7.43;;;5.97;;
3953;SDS011;1991;48.682;9.030;2023-01-28T02:11:24;7.50;;;5.97;;
3953;SDS011;1991;48.682;9.030;2023-01-28T02:13:56;8.53;;;6.57;;
3953;SDS011;1991;48.682;9.030;2023-01-28T02:16:24;9.00;;;6.57;;
3953;SDS011;1991;48.682;9.030;2023-01-28T02:18:50;8.80;;;6.07;;
3953;SDS011;1991;48.682;9.030;2023-01-28T02:21:41;8.53;;;6.63;;
3953;SDS011;1991;48.682;9.030;2023-01-28T02:29:49;9.50;;;6.70;;
3953;SDS011;1991;48.682;9.030;2023-01-28T02:32:39;8.37;;;6.37;;
3953;SDS011;1991;48.682;9.030;2023-01-28T02:35:17;7.53;;;5.90;;
3953;SDS011;1991;48.682;9.030;2023-01-28T02:37:52;8.40;;;6.17;;
3953;SDS011;1991;48.682;9.030;2023-01-28T02:40:27;12.07;;;7.57;;
3953;SDS011;1991;48.682;9.030;2023-01-28T02:42:55;9.23;;;6.87;;
3953;SDS011;1991;48.682;9.030;2023-01-28T02:47:48;7.67;;;5.93;;
3953;SDS011;1991;48.682;9.030;2023-01-28T02:50:45;8.30;;;6.03;;
3953;SDS011;1991;48.682;9.030;2023-01-28T02:53:27;8.20;;;6.33;;
3953;SDS011;1991;48.682;9.030;2023-01-28T02:59:10;7.33;;;5.83;;
3953;SDS011;1991;48.682;9.030;2023-01-28T03:02:20;8.97;;;5.50;;
3953;SDS011;1991;48.682;9.030;2023-01-28T03:05:21;8.33;;;5.73;;
3953;SDS011;1991;48.682;9.030;2023-01-28T03:07:53;7.97;;;5.73;;
3953;SDS011;1991;48.682;9.030;2023-01-28T03:10:20;6.80;;;5.13;;
3953;SDS011;1991;48.682;9.030;2023-01-28T03:12:49;6.70;;;5.60;;
3953;SDS011;1991;48.682;9.030;2023-01-28T03:15:37;8.03;;;6.03;;
3953;SDS011;1991;48.682;9.030;2023-01-28T03:18:28;8.73;;;5.93;;
3953;SDS011;1991;48.682;9.030;2023-01-28T03:21:19;8.50;;;5.80;;
3953;SDS011;1991;48.682;9.030;2023-01-28T03:24:10;7.33;;;5.33;;
3953;SDS011;1991;48.682;9.030;2023-01-28T03:27:09;8.43;;;5.93;;
3953;SDS011;1991;48.682;9.030;2023-01-28T03:29:59;7.70;;;5.33;;
3953;SDS011;1991;48.682;9.030;2023-01-28T03:32:49;6.23;;;5.00;;
3953;SDS011;1991;48.682;9.030;2023-01-28T03:35:33;9.60;;;5.70;;
3953;SDS011;1991;48.682;9.030;2023-01-28T03:38:19;9.20;;;5.60;;
3953;SDS011;1991;48.682;9.030;2023-01-28T03:40:57;6.73;;;5.40;;
3953;SDS011;1991;48.682;9.030;2023-01-28T03:43:26;8.83;;;5.93;;
3953;SDS011;1991;48.682;9.030;2023-01-28T03:45:53;7.17;;;5.77;;
3953;SDS011;1991;48.682;9.030;2023-01-28T03:48:20;8.27;;;5.93;;
3953;SDS011;1991;48.682;9.030;2023-01-28T03:50:50;8.13;;;5.30;;
3953;SDS011;1991;48.682;9.030;2023-01-28T03:53:16;8.50;;;5.80;;
3953;SDS011;1991;48.682;9.030;2023-01-28T03:55:43;7.37;;;5.67;;
3953;SDS011;1991;48.682;9.030;2023-01-28T03:58:11;7.47;;;5.50;;
3953;SDS011;1991;48.682;9.030;2023-01-28T04:00:37;11.70;;;5.97;;
3953;SDS011;1991;48.682;9.030;2023-01-28T04:03:16;7.37;;;5.50;;
3953;SDS011;1991;48.682;9.030;2023-01-28T04:05:43;9.70;;;6.33;;
3953;SDS011;1991;48.682;9.030;2023-01-28T04:08:22;9.47;;;6.40;;
3953;SDS011;1991;48.682;9.030;2023-01-28T04:10:48;8.10;;;6.30;;
3953;SDS011;1991;48.682;9.030;2023-01-28T04:13:14;8.77;;;7.07;;
3953;SDS011;1991;48.682;9.030;2023-01-28T04:15:41;9.77;;;6.53;;
3953;SDS011;1991;48.682;9.030;2023-01-28T04:18:07;9.17;;;6.93;;
3953;SDS011;1991;48.682;9.030;2023-01-28T04:20:34;9.23;;;7.00;;
3953;SDS011;1991;48.682;9.030;2023-01-28T04:23:00;9.87;;;7.17;;
3953;SDS011;1991;48.682;9.030;2023-01-28T04:25:25;9.07;;;7.47;;
3953;SDS011;1991;48.682;9.030;2023-01-28T04:27:51;10.37;;;7.50;;
3953;SDS011;1991;48.682;9.030;2023-01-28T04:30:17;9.47;;;7.30;;
3953;SDS011;1991;48.682;9.030;2023-01-28T04:32:43;7.93;;;6.77;;
3953;SDS011;1991;48.682;9.030;2023-01-28T04:35:10;11.23;;;7.27;;
3953;SDS011;1991;48.682;9.030;2023-01-28T04:37:36;10.73;;;7.27;;
3953;SDS011;1991;48.682;9.030;2023-01-28T04:40:02;10.07;;;7.60;;
3953;SDS011;1991;48.682;9.030;2023-01-28T04:42:27;10.77;;;7.80;;
3953;SDS011;1991;48.682;9.030;2023-01-28T04:44:53;9.80;;;7.53;;
3953;SDS011;1991;48.682;9.030;2023-01-28T04:47:18;8.87;;;7.23;;
3953;SDS011;1991;48.682;9.030;2023-01-28T04:49:44;9.53;;;7.03;;
3953;SDS011;1991;48.682;9.030;2023-01-28T04:52:10;10.90;;;7.17;;
3953;SDS011;1991;48.682;9.030;2023-01-28T04:54:35;9.30;;;6.70;;
3953;SDS011;1991;48.682;9.030;2023-01-28T04:57:01;8.63;;;7.43;;
3953;SDS011;1991;48.682;9.030;2023-01-28T04:59:26;8.47;;;7.00;;
3953;SDS011;1991;48.682;9.030;2023-01-28T05:01:52;8.37;;;6.90;;
3953;SDS011;1991;48.682;9.030;2023-01-28T05:04:17;8.87;;;7.20;;
3953;SDS011;1991;48.682;9.030;2023-01-28T05:06:43;10.23;;;7.77;;
3953;SDS011;1991;48.682;9.030;2023-01-28T05:09:09;10.03;;;7.57;;
3953;SDS011;1991;48.682;9.030;2023-01-28T05:11:34;9.37;;;7.40;;
3953;SDS011;1991;48.682;9.030;2023-01-28T05:14:00;10.67;;;7.07;;
3953;SDS011;1991;48.682;9.030;2023-01-28T05:16:26;8.50;;;7.03;;
3953;SDS011;1991;48.682;9.030;2023-01-28T05:18:52;9.80;;;7.33;;
3953;SDS011;1991;48.682;9.030;2023-01-28T05:21:17;11.00;;;7.47;;
3953;SDS011;1991;48.682;9.030;2023-01-28T05:23:43;8.27;;;7.00;;
3953;SDS011;1991;48.682;9.030;2023-01-28T05:26:08;10.53;;;7.50;;
3953;SDS011;1991;48.682;9.030;2023-01-28T05:28:34;9.43;;;7.33;;
3953;SDS011;1991;48.682;9.030;2023-01-28T05:31:03;10.50;;;7.40;;
3953;SDS011;1991;48.682;9.030;2023-01-28T05:33:30;10.50;;;7.30;;
3953;SDS011;1991;48.682;9.030;2023-01-28T05:35:56;10.83;;;8.30;;
3953;SDS011;1991;48.682;9.030;2023-01-28T05:38:21;9.73;;;7.87;;
3953;SDS011;1991;48.682;9.030;2023-01-28T05:40:47;9.20;;;7.70;;
3953;SDS011;1991;48.682;9.030;2023-01-28T05:43:13;11.93;;;9.87;;
3953;SDS011;1991;48.682;9.030;2023-01-28T05:45:39;13.43;;;8.87;;
3953;SDS011;1991;48.682;9.030;2023-01-28T05:48:05;8.83;;;7.43;;
3953;SDS011;1991;48.682;9.030;2023-01-28T05:50:30;10.17;;;8.07;;
3953;SDS011;1991;48.682;9.030;2023-01-28T05:52:56;9.07;;;7.33;;
3953;SDS011;1991;48.682;9.030;2023-01-28T05:55:22;9.47;;;7.43;;
3953;SDS011;1991;48.682;9.030;2023-01-28T05:57:48;9.63;;;7.40;;
3953;SDS011;1991;48.682;9.030;2023-01-28T06:00:14;11.30;;;8.63;;
3953;SDS011;1991;48.682;9.030;2023-01-28T06:02:40;9.27;;;7.20;;
3953;SDS011;1991;48.682;9.030;2023-01-28T06:05:06;9.73;;;7.67;;
3953;SDS011;1991;48.682;9.030;2023-01-28T06:07:33;11.50;;;8.10;;
3953;SDS011;1991;48.682;9.030;2023-01-28T06:09:58;9.70;;;7.40;;
3953;SDS011;1991;48.682;9.030;2023-01-28T06:12:24;10.50;;;8.10;;
3953;SDS011;1991;48.682;9.030;2023-01-28T06:14:49;10.50;;;8.33;;
3953;SDS011;1991;48.682;9.030;2023-01-28T06:17:15;9.87;;;7.77;;
3953;SDS011;1991;48.682;9.030;2023-01-28T06:19:41;11.20;;;8.00;;
3953;SDS011;1991;48.682;9.030;2023-01-28T06:22:06;10.47;;;8.03;;
3953;SDS011;1991;48.682;9.030;2023-01-28T06:24:32;13.03;;;8.10;;
3953;SDS011;1991;48.682;9.030;2023-01-28T06:26:58;12.50;;;8.00;;
3953;SDS011;1991;48.682;9.030;2023-01-28T06:29:23;10.90;;;8.30;;
3953;SDS011;1991;48.682;9.030;2023-01-28T06:31:49;11.40;;;8.90;;
3953;SDS011;1991;48.682;9.030;2023-01-28T06:34:15;10.83;;;8.23;;
3953;SDS011;1991;48.682;9.030;2023-01-28T06:36:40;11.00;;;8.60;;
3953;SDS011;1991;48.682;9.030;2023-01-28T06:39:06;10.47;;;7.43;;
3953;SDS011;1991;48.682;9.030;2023-01-28T06:41:32;10.33;;;8.10;;
3953;SDS011;1991;48.682;9.030;2023-01-28T06:43:57;11.53;;;8.80;;
3953;SDS011;1991;48.682;9.030;2023-01-28T06:46:23;11.70;;;8.20;;
3953;SDS011;1991;48.682;9.030;2023-01-28T06:48:49;10.20;;;8.00;;
3953;SDS011;1991;48.682;9.030;2023-01-28T06:51:14;10.13;;;8.03;;
3953;SDS011;1991;48.682;9.030;2023-01-28T06:53:40;10.53;;;7.63;;
3953;SDS011;1991;48.682;9.030;2023-01-28T06:56:06;11.07;;;8.30;;
3953;SDS011;1991;48.682;9.030;2023-01-28T06:58:32;13.63;;;9.17;;
3953;SDS011;1991;48.682;9.030;2023-01-28T07:00:58;10.53;;;8.33;;
3953;SDS011;1991;48.682;9.030;2023-01-28T07:03:24;10.70;;;7.97;;
3953;SDS011;1991;48.682;9.030;2023-01-28T07:05:50;11.57;;;8.60;;
3953;SDS011;1991;48.682;9.030;2023-01-28T07:08:16;11.17;;;8.60;;
3953;SDS011;1991;48.682;9.030;2023-01-28T07:10:42;12.20;;;8.57;;
3953;SDS011;1991;48.682;9.030;2023-01-28T07:13:08;12.63;;;9.17;;
3953;SDS011;1991;48.682;9.030;2023-01-28T07:15:34;10.33;;;8.33;;
3953;SDS011;1991;48.682;9.030;2023-01-28T07:18:00;13.20;;;9.00;;
3953;SDS011;1991;48.682;9.030;2023-01-28T07:20:26;13.03;;;8.83;;
3953;SDS011;1991;48.682;9.030;2023-01-28T07:22:51;11.73;;;8.43;;
3953;SDS011;1991;48.682;9.030;2023-01-28T07:25:17;10.43;;;7.83;;
3953;SDS011;1991;48.682;9.030;2023-01-28T07:27:49;12.77;;;8.43;;
3953;SDS011;1991;48.682;9.030;2023-01-28T07:30:17;12.47;;;8.40;;
3953;SDS011;1991;48.682;9.030;2023-01-28T07:32:43;11.73;;;8.27;;
3953;SDS011;1991;48.682;9.030;2023-01-28T07:35:09;11.27;;;8.80;;
3953;SDS011;1991;48.682;9.030;2023-01-28T07:37:35;16.00;;;13.17;;
3953;SDS011;1991;48.682;9.030;2023-01-28T07:40:00;14.10;;;9.93;;
3953;SDS011;1991;48.682;9.030;2023-01-28T07:42:26;11.60;;;8.13;;
3953;SDS011;1991;48.682;9.030;2023-01-28T07:44:52;9.40;;;7.70;;
3953;SDS011;1991;48.682;9.030;2023-01-28T07:47:17;9.80;;;8.13;;
3953;SDS011;1991;48.682;9.030;2023-01-28T07:49:43;11.63;;;8.97;;
3953;SDS011;1991;48.682;9.030;2023-01-28T07:52:09;12.53;;;8.57;;
3953;SDS011;1991;48.682;9.030;2023-01-28T07:54:35;14.60;;;8.47;;
3953;SDS011;1991;48.682;9.030;2023-01-28T07:57:01;10.63;;;8.03;;
3953;SDS011;1991;48.682;9.030;2023-01-28T07:59:26;10.30;;;8.13;;
3953;SDS011;1991;48.682;9.030;2023-01-28T08:01:52;10.53;;;8.63;;
3953;SDS011;1991;48.682;9.030;2023-01-28T08:04:18;11.37;;;8.27;;
3953;SDS011;1991;48.682;9.030;2023-01-28T08:06:44;9.27;;;7.83;;
3953;SDS011;1991;48.682;9.030;2023-01-28T08:09:10;10.97;;;8.20;;
3953;SDS011;1991;48.682;9.030;2023-01-28T08:11:38;12.13;;;8.93;;
3953;SDS011;1991;48.682;9.030;2023-01-28T08:14:04;10.53;;;7.80;;
3953;SDS011;1991;48.682;9.030;2023-01-28T08:16:30;11.27;;;8.37;;
3953;SDS011;1991;48.682;9.030;2023-01-28T08:18:55;11.13;;;8.67;;
3953;SDS011;1991;48.682;9.030;2023-01-28T08:21:21;11.37;;;9.07;;
3953;SDS011;1991;48.682;9.030;2023-01-28T08:23:47;12.23;;;9.13;;
3953;SDS011;1991;48.682;9.030;2023-01-28T08:26:13;13.40;;;10.03;;
3953;SDS011;1991;48.682;9.030;2023-01-28T08:28:38;10.03;;;8.17;;
3953;SDS011;1991;48.682;9.030;2023-01-28T08:31:04;10.80;;;7.70;;
3953;SDS011;1991;48.682;9.030;2023-01-28T08:33:30;11.60;;;8.33;;
3953;SDS011;1991;48.682;9.030;2023-01-28T08:35:55;12.70;;;8.80;;
3953;SDS011;1991;48.682;9.030;2023-01-28T08:38:21;10.93;;;8.20;;
3953;SDS011;1991;48.682;9.030;2023-01-28T08:40:47;13.37;;;10.27;;
3953;SDS011;1991;48.682;9.030;2023-01-28T08:43:19;11.63;;;8.63;;
3953;SDS011;1991;48.682;9.030;2023-01-28T08:45:45;11.17;;;8.00;;
3953;SDS011;1991;48.682;9.030;2023-01-28T08:48:11;10.63;;;8.50;;
3953;SDS011;1991;48.682;9.030;2023-01-28T08:50:42;9.43;;;7.77;;
3953;SDS011;1991;48.682;9.030;2023-01-28T08:53:10;11.57;;;8.00;;
3953;SDS011;1991;48.682;9.030;2023-01-28T08:55:37;12.33;;;8.40;;
3953;SDS011;1991;48.682;9.030;2023-01-28T08:58:07;9.90;;;7.83;;
3953;SDS011;1991;48.682;9.030;2023-01-28T09:00:35;10.10;;;8.37;;
3953;SDS011;1991;48.682;9.030;2023-01-28T09:03:01;9.43;;;7.83;;
3953;SDS011;1991;48.682;9.030;2023-01-28T09:05:27;10.93;;;8.07;;
3953;SDS011;1991;48.682;9.030;2023-01-28T09:07:54;8.63;;;7.33;;
3953;SDS011;1991;48.682;9.030;2023-01-28T09:10:20;9.23;;;7.77;;
3953;SDS011;1991;48.682;9.030;2023-01-28T09:12:46;11.13;;;8.37;;
3953;SDS011;1991;48.682;9.030;2023-01-28T09:15:11;9.80;;;7.97;;
3953;SDS011;1991;48.682;9.030;2023-01-28T09:17:38;10.73;;;8.07;;
3953;SDS011;1991;48.682;9.030;2023-01-28T09:20:04;9.47;;;7.50;;
3953;SDS011;1991;48.682;9.030;2023-01-28T09:22:31;10.40;;;7.10;;
3953;SDS011;1991;48.682;9.030;2023-01-28T09:24:57;10.67;;;8.27;;
3953;SDS011;1991;48.682;9.030;2023-01-28T09:27:22;11.83;;;7.80;;
3953;SDS011;1991;48.682;9.030;2023-01-28T09:29:48;9.53;;;7.60;;
3953;SDS011;1991;48.682;9.030;2023-01-28T09:32:13;11.13;;;8.07;;
3953;SDS011;1991;48.682;9.030;2023-01-28T09:34:39;10.20;;;7.93;;
3953;SDS011;1991;48.682;9.030;2023-01-28T09:37:05;11.30;;;8.40;;
3953;SDS011;1991;48.682;9.030;2023-01-28T09:39:30;10.23;;;8.50;;
3953;SDS011;1991;48.682;9.030;2023-01-28T09:42:00;11.07;;;8.67;;
3953;SDS011;1991;48.682;9.030;2023-01-28T09:46:59;10.97;;;8.63;;
3953;SDS011;1991;48.682;9.030;2023-01-28T09:49:33;10.80;;;8.20;;
3953;SDS011;1991;48.682;9.030;2023-01-28T09:52:04;14.07;;;8.87;;
3953;SDS011;1991;48.682;9.030;2023-01-28T09:57:11;11.27;;;8.80;;
3953;SDS011;1991;48.682;9.030;2023-01-28T09:59:44;10.50;;;8.10;;
3953;SDS011;1991;48.682;9.030;2023-01-28T10:07:33;11.97;;;8.37;;
3953;SDS011;1991;48.682;9.030;2023-01-28T10:10:20;10.37;;;8.07;;
3953;SDS011;1991;48.682;9.030;2023-01-28T10:13:05;10.00;;;7.83;;
3953;SDS011;1991;48.682;9.030;2023-01-28T10:15:53;9.73;;;7.70;;
3953;SDS011;1991;48.682;9.030;2023-01-28T10:18:38;10.63;;;8.73;;
3953;SDS011;1991;48.682;9.030;2023-01-28T10:21:46;10.27;;;8.07;;
3953;SDS011;1991;48.682;9.030;2023-01-28T10:24:26;10.03;;;8.13;;
3953;SDS011;1991;48.682;9.030;2023-01-28T10:26:53;11.20;;;9.07;;
3953;SDS011;1991;48.682;9.030;2023-01-28T10:29:22;12.33;;;9.10;;
3953;SDS011;1991;48.682;9.030;2023-01-28T10:34:16;12.83;;;9.03;;
3953;SDS011;1991;48.682;9.030;2023-01-28T10:36:42;11.77;;;9.20;;
3953;SDS011;1991;48.682;9.030;2023-01-28T10:39:08;14.30;;;9.93;;
3953;SDS011;1991;48.682;9.030;2023-01-28T10:41:37;12.47;;;9.07;;
3953;SDS011;1991;48.682;9.030;2023-01-28T10:44:04;11.77;;;9.17;;
3953;SDS011;1991;48.682;9.030;2023-01-28T10:46:31;12.83;;;9.30;;
3953;SDS011;1991;48.682;9.030;2023-01-28T10:49:01;13.43;;;10.00;;
3953;SDS011;1991;48.682;9.030;2023-01-28T10:51:28;13.50;;;9.20;;
3953;SDS011;1991;48.682;9.030;2023-01-28T10:53:58;12.87;;;9.77;;
3953;SDS011;1991;48.682;9.030;2023-01-28T10:56:31;11.40;;;9.33;;
3953;SDS011;1991;48.682;9.030;2023-01-28T10:59:00;11.37;;;8.77;;
3953;SDS011;1991;48.682;9.030;2023-01-28T11:01:46;12.87;;;9.30;;
3953;SDS011;1991;48.682;9.030;2023-01-28T11:04:33;11.87;;;8.77;;
3953;SDS011;1991;48.682;9.030;2023-01-28T11:09:29;11.57;;;9.13;;
3953;SDS011;1991;48.682;9.030;2023-01-28T11:11:57;13.23;;;9.10;;
3953;SDS011;1991;48.682;9.030;2023-01-28T11:14:34;13.40;;;8.90;;
3953;SDS011;1991;48.682;9.030;2023-01-28T11:16:59;13.07;;;9.20;;
3953;SDS011;1991;48.682;9.030;2023-01-28T11:19:33;12.37;;;9.43;;
3953;SDS011;1991;48.682;9.030;2023-01-28T11:22:00;13.40;;;9.60;;
3953;SDS011;1991;48.682;9.030;2023-01-28T11:24:29;13.37;;;9.93;;
3953;SDS011;1991;48.682;9.030;2023-01-28T11:26:57;13.87;;;10.20;;
3953;SDS011;1991;48.682;9.030;2023-01-28T11:29:26;14.27;;;9.83;;
3953;SDS011;1991;48.682;9.030;2023-01-28T11:31:55;13.27;;;10.00;;
3953;SDS011;1991;48.682;9.030;2023-01-28T11:34:24;15.17;;;10.03;;
3953;SDS011;1991;48.682;9.030;2023-01-28T11:36:53;13.33;;;10.00;;
3953;SDS011;1991;48.682;9.030;2023-01-28T11:39:26;14.80;;;10.23;;
3953;SDS011;1991;48.682;9.030;2023-01-28T11:41:53;14.63;;;10.67;;
3953;SDS011;1991;48.682;9.030;2023-01-28T11:44:26;14.43;;;10.13;;
3953;SDS011;1991;48.682;9.030;2023-01-28T11:50:03;13.33;;;10.43;;
3953;SDS011;1991;48.682;9.030;2023-01-28T11:52:18;12.67;;;10.03;;
3953;SDS011;1991;48.682;9.030;2023-01-28T12:13:54;14.83;;;11.33;;
3953;SDS011;1991;48.682;9.030;2023-01-28T12:38:49;14.57;;;11.10;;
3953;SDS011;1991;48.682;9.030;2023-01-28T12:41:38;19.20;;;11.90;;
3953;SDS011;1991;48.682;9.030;2023-01-28T12:44:12;17.47;;;11.07;;
3953;SDS011;1991;48.682;9.030;2023-01-28T12:46:46;20.23;;;12.23;;
3953;SDS011;1991;48.682;9.030;2023-01-28T12:49:29;19.43;;;14.90;;
3953;SDS011;1991;48.682;9.030;2023-01-28T12:57:29;15.33;;;10.87;;
3953;SDS011;1991;48.682;9.030;2023-01-28T13:02:50;15.70;;;11.40;;
3953;SDS011;1991;48.682;9.030;2023-01-28T13:05:37;16.27;;;12.47;;
3953;SDS011;1991;48.682;9.030;2023-01-28T13:08:12;15.67;;;10.73;;
3953;SDS011;1991;48.682;9.030;2023-01-28T13:10:44;13.87;;;11.33;;
3953;SDS011;1991;48.682;9.030;2023-01-28T13:15:55;16.83;;;11.37;;
3953;SDS011;1991;48.682;9.030;2023-01-28T13:19:02;14.63;;;10.27;;
3953;SDS011;1991;48.682;9.030;2023-01-28T13:23:47;16.43;;;11.17;;
3953;SDS011;1991;48.682;9.030;2023-01-28T13:28:43;15.60;;;10.73;;
3953;SDS011;1991;48.682;9.030;2023-01-28T13:31:16;17.10;;;11.67;;
3953;SDS011;1991;48.682;9.030;2023-01-28T13:33:48;15.87;;;10.93;;
3953;SDS011;1991;48.682;9.030;2023-01-28T13:41:38;16.87;;;11.40;;
3953;SDS011;1991;48.682;9.030;2023-01-28T13:44:16;14.70;;;11.23;;
3953;SDS011;1991;48.682;9.030;2023-01-28T13:46:41;19.53;;;12.30;;
3953;SDS011;1991;48.682;9.030;2023-01-28T13:49:08;14.13;;;10.00;;
3953;SDS011;1991;48.682;9.030;2023-01-28T13:51:39;13.43;;;9.67;;
3953;SDS011;1991;48.682;9.030;2023-01-28T13:54:17;13.27;;;8.97;;
3953;SDS011;1991;48.682;9.030;2023-01-28T14:04:48;10.70;;;7.20;;
3953;SDS011;1991;48.682;9.030;2023-01-28T14:13:21;11.33;;;7.50;;
3953;SDS011;1991;48.682;9.030;2023-01-28T14:15:56;11.77;;;7.13;;
3953;SDS011;1991;48.682;9.030;2023-01-28T14:18:27;10.03;;;6.50;;
3953;SDS011;1991;48.682;9.030;2023-01-28T14:20:58;8.67;;;6.10;;
3953;SDS011;1991;48.682;9.030;2023-01-28T14:23:27;8.73;;;5.90;;
3953;SDS011;1991;48.682;9.030;2023-01-28T14:28:38;7.40;;;5.20;;
3953;SDS011;1991;48.682;9.030;2023-01-28T14:31:25;8.47;;;5.00;;
3953;SDS011;1991;48.682;9.030;2023-01-28T14:33:55;9.27;;;6.13;;
3953;SDS011;1991;48.682;9.030;2023-01-28T14:36:36;9.13;;;6.17;;
3953;SDS011;1991;48.682;9.030;2023-01-28T14:39:14;9.50;;;6.10;;
3953;SDS011;1991;48.682;9.030;2023-01-28T14:41:42;12.83;;;7.33;;
3953;SDS011;1991;48.682;9.030;2023-01-28T14:44:10;10.60;;;7.40;;
3953;SDS011;1991;48.682;9.030;2023-01-28T14:46:49;12.07;;;7.90;;
3953;SDS011;1991;48.682;9.030;2023-01-28T14:49:45;22.40;;;14.70;;
3953;SDS011;1991;48.682;9.030;2023-01-28T14:57:49;8.63;;;6.50;;
3953;SDS011;1991;48.682;9.030;2023-01-28T15:00:23;14.20;;;11.83;;
3953;SDS011;1991;48.682;9.030;2023-01-28T15:02:51;12.40;;;8.70;;
3953;SDS011;1991;48.682;9.030;2023-01-28T15:05:26;17.23;;;13.70;;
3953;SDS011;1991;48.682;9.030;2023-01-28T15:07:53;11.07;;;8.03;;
3953;SDS011;1991;48.682;9.030;2023-01-28T15:10:26;11.07;;;8.23;;
3953;SDS011;1991;48.682;9.030;2023-01-28T15:13:04;11.77;;;8.37;;
3953;SDS011;1991;48.682;9.030;2023-01-28T15:15:40;12.07;;;8.80;;
3953;SDS011;1991;48.682;9.030;2023-01-28T15:18:16;24.07;;;18.63;;
3953;SDS011;1991;48.682;9.030;2023-01-28T15:20:47;12.70;;;9.07;;
3953;SDS011;1991;48.682;9.030;2023-01-28T15:23:17;10.93;;;7.53;;
3953;SDS011;1991;48.682;9.030;2023-01-28T15:25:49;11.60;;;9.07;;
3953;SDS011;1991;48.682;9.030;2023-01-28T15:28:24;15.60;;;11.03;;
3953;SDS011;1991;48.682;9.030;2023-01-28T15:30:52;12.67;;;8.80;;
3953;SDS011;1991;48.682;9.030;2023-01-28T15:33:19;13.10;;;9.17;;
3953;SDS011;1991;48.682;9.030;2023-01-28T15:35:46;11.27;;;8.77;;
3953;SDS011;1991;48.682;9.030;2023-01-28T15:38:13;9.00;;;7.63;;
3953;SDS011;1991;48.682;9.030;2023-01-28T15:40:41;11.67;;;8.30;;
3953;SDS011;1991;48.682;9.030;2023-01-28T15:43:19;11.13;;;7.30;;
3953;SDS011;1991;48.682;9.030;2023-01-28T15:45:48;11.00;;;7.30;;
3953;SDS011;1991;48.682;9.030;2023-01-28T15:48:19;8.83;;;7.40;;
3953;SDS011;1991;48.682;9.030;2023-01-28T15:50:45;8.00;;;6.80;;
3953;SDS011;1991;48.682;9.030;2023-01-28T15:53:11;9.37;;;6.77;;
3953;SDS011;1991;48.682;9.030;2023-01-28T15:55:39;10.30;;;7.53;;
3953;SDS011;1991;48.682;9.030;2023-01-28T16:00:44;11.83;;;8.37;;
3953;SDS011;1991;48.682;9.030;2023-01-28T16:03:16;8.83;;;7.10;;
3953;SDS011;1991;48.682;9.030;2023-01-28T16:05:52;9.17;;;7.03;;
3953;SDS011;1991;48.682;9.030;2023-01-28T16:11:26;9.30;;;7.63;;
3953;SDS011;1991;48.682;9.030;2023-01-28T16:14:17;8.23;;;6.80;;
3953;SDS011;1991;48.682;9.030;2023-01-28T16:16:52;7.63;;;6.33;;
3953;SDS011;1991;48.682;9.030;2023-01-28T16:19:32;8.20;;;6.57;;
3953;SDS011;1991;48.682;9.030;2023-01-28T16:22:03;17.23;;;11.30;;
3953;SDS011;1991;48.682;9.030;2023-01-28T16:24:31;10.47;;;7.23;;
3953;SDS011;1991;48.682;9.030;2023-01-28T16:27:18;8.90;;;6.47;;
3953;SDS011;1991;48.682;9.030;2023-01-28T16:29:48;8.97;;;6.47;;
3953;SDS011;1991;48.682;9.030;2023-01-28T16:32:27;8.70;;;6.43;;
3953;SDS011;1991;48.682;9.030;2023-01-28T16:34:54;8.57;;;6.57;;
3953;SDS011;1991;48.682;9.030;2023-01-28T16:37:19;8.87;;;6.00;;
3953;SDS011;1991;48.682;9.030;2023-01-28T16:39:45;9.27;;;6.73;;
3953;SDS011;1991;48.682;9.030;2023-01-28T16:42:10;7.93;;;6.63;;
3953;SDS011;1991;48.682;9.030;2023-01-28T16:44:36;7.40;;;6.13;;
3953;SDS011;1991;48.682;9.030;2023-01-28T16:47:03;8.20;;;6.20;;
3953;SDS011;1991;48.682;9.030;2023-01-28T16:49:29;8.57;;;7.20;;
3953;SDS011;1991;48.682;9.030;2023-01-28T16:51:55;8.10;;;6.10;;
3953;SDS011;1991;48.682;9.030;2023-01-28T16:54:21;7.97;;;6.23;;
3953;SDS011;1991;48.682;9.030;2023-01-28T16:56:46;7.23;;;6.23;;
3953;SDS011;1991;48.682;9.030;2023-01-28T16:59:13;7.33;;;6.57;;
3953;SDS011;1991;48.682;9.030;2023-01-28T17:01:39;7.57;;;6.07;;
3953;SDS011;1991;48.682;9.030;2023-01-28T17:04:05;9.07;;;6.77;;
3953;SDS011;1991;48.682;9.030;2023-01-28T17:06:34;7.67;;;6.10;;
3953;SDS011;1991;48.682;9.030;2023-01-28T17:09:02;8.17;;;6.47;;
3953;SDS011;1991;48.682;9.030;2023-01-28T17:11:31;7.23;;;5.70;;
3953;SDS011;1991;48.682;9.030;2023-01-28T17:13:57;7.73;;;5.93;;
3953;SDS011;1991;48.682;9.030;2023-01-28T17:16:23;7.50;;;6.20;;
3953;SDS011;1991;48.682;9.030;2023-01-28T17:18:49;8.23;;;5.47;;
3953;SDS011;1991;48.682;9.030;2023-01-28T17:21:15;7.60;;;6.03;;
3953;SDS011;1991;48.682;9.030;2023-01-28T17:23:41;8.63;;;5.97;;